Terminal Aerodrome Forecast
Issued by NWS

Home | Current Version | Previous Version | Text Only | Print | Product List | Glossary On
Versions: 1 2 3 4 5 6 7 8 9 10 11 12 13 14 15 16 17
006
FTUS41 KPHI 281145
TAFPNE
TAF
KPNE 281145Z 2812/2912 VRB03KT P6SM SCT250
     FM281400 16004KT P6SM SCT250
     FM281700 22006KT P6SM SCT050
      TEMPO 2821/2823 4SM SHRA BKN035
     FM290000 VRB03KT P6SM BKN050
      TEMPO 2904/2906 3SM SHRA OVC035
     FM290600 09006KT 4SM SHRA BR OVC025
     FM290900 13006KT 2SM +SHRA BR OVC015=

USA.gov is the U.S. government's official web portal to all federal, state and local government web resources and services.